sensor_id;sensor_type;location;lat;lon;timestamp;P1;durP1;ratioP1;P2;durP2;ratioP2
26588;SDS011;14235;48.532;8.722;2023-03-31T00:01:23;5.40;;;3.10;;
26588;SDS011;14235;48.532;8.722;2023-03-31T00:03:49;3.92;;;2.75;;
26588;SDS011;14235;48.532;8.722;2023-03-31T00:06:15;3.28;;;2.85;;
26588;SDS011;14235;48.532;8.722;2023-03-31T00:08:44;5.53;;;2.90;;
26588;SDS011;14235;48.532;8.722;2023-03-31T00:11:11;3.10;;;2.80;;
26588;SDS011;14235;48.532;8.722;2023-03-31T00:13:37;4.63;;;2.78;;
26588;SDS011;14235;48.532;8.722;2023-03-31T00:16:04;3.60;;;3.05;;
26588;SDS011;14235;48.532;8.722;2023-03-31T00:18:32;3.38;;;2.47;;
26588;SDS011;14235;48.532;8.722;2023-03-31T00:21:04;4.60;;;2.70;;
26588;SDS011;14235;48.532;8.722;2023-03-31T00:23:38;3.42;;;3.10;;
26588;SDS011;14235;48.532;8.722;2023-03-31T00:26:05;5.63;;;2.92;;
26588;SDS011;14235;48.532;8.722;2023-03-31T00:28:30;3.88;;;2.63;;
26588;SDS011;14235;48.532;8.722;2023-03-31T00:31:00;3.42;;;2.80;;
26588;SDS011;14235;48.532;8.722;2023-03-31T00:33:27;4.10;;;2.80;;
26588;SDS011;14235;48.532;8.722;2023-03-31T00:35:53;3.88;;;2.70;;
26588;SDS011;14235;48.532;8.722;2023-03-31T00:38:19;3.40;;;2.78;;
26588;SDS011;14235;48.532;8.722;2023-03-31T00:40:46;2.80;;;2.60;;
26588;SDS011;14235;48.532;8.722;2023-03-31T00:48:49;4.00;;;2.78;;
26588;SDS011;14235;48.532;8.722;2023-03-31T00:51:21;2.88;;;2.55;;
26588;SDS011;14235;48.532;8.722;2023-03-31T00:53:50;3.15;;;2.80;;
26588;SDS011;14235;48.532;8.722;2023-03-31T00:56:24;3.08;;;2.60;;
26588;SDS011;14235;48.532;8.722;2023-03-31T00:58:51;2.53;;;2.33;;
26588;SDS011;14235;48.532;8.722;2023-03-31T01:01:22;3.15;;;2.85;;
26588;SDS011;14235;48.532;8.722;2023-03-31T01:03:48;5.35;;;2.80;;
26588;SDS011;14235;48.532;8.722;2023-03-31T01:06:16;5.40;;;2.65;;
26588;SDS011;14235;48.532;8.722;2023-03-31T01:08:47;3.55;;;2.60;;
26588;SDS011;14235;48.532;8.722;2023-03-31T01:11:16;4.20;;;2.97;;
26588;SDS011;14235;48.532;8.722;2023-03-31T01:13:44;4.07;;;2.78;;
26588;SDS011;14235;48.532;8.722;2023-03-31T01:16:15;3.30;;;2.50;;
26588;SDS011;14235;48.532;8.722;2023-03-31T01:18:41;3.00;;;2.50;;
26588;SDS011;14235;48.532;8.722;2023-03-31T01:29:49;6.82;;;2.22;;
26588;SDS011;14235;48.532;8.722;2023-03-31T01:46:22;5.57;;;2.50;;
26588;SDS011;14235;48.532;8.722;2023-03-31T01:48:56;6.53;;;2.63;;
26588;SDS011;14235;48.532;8.722;2023-03-31T01:54:53;6.20;;;2.40;;
26588;SDS011;14235;48.532;8.722;2023-03-31T01:57:34;4.32;;;2.60;;
26588;SDS011;14235;48.532;8.722;2023-03-31T02:00:04;6.55;;;2.15;;
26588;SDS011;14235;48.532;8.722;2023-03-31T02:05:43;3.13;;;2.58;;
26588;SDS011;14235;48.532;8.722;2023-03-31T02:08:17;4.68;;;2.63;;
26588;SDS011;14235;48.532;8.722;2023-03-31T02:10:51;5.40;;;2.33;;
26588;SDS011;14235;48.532;8.722;2023-03-31T02:13:18;3.53;;;2.10;;
26588;SDS011;14235;48.532;8.722;2023-03-31T02:15:47;3.28;;;2.30;;
26588;SDS011;14235;48.532;8.722;2023-03-31T02:18:19;4.53;;;2.38;;
26588;SDS011;14235;48.532;8.722;2023-03-31T02:20:50;3.40;;;2.28;;
26588;SDS011;14235;48.532;8.722;2023-03-31T02:23:19;6.47;;;2.85;;
26588;SDS011;14235;48.532;8.722;2023-03-31T02:25:51;3.90;;;2.05;;
26588;SDS011;14235;48.532;8.722;2023-03-31T02:28:22;3.97;;;2.22;;
26588;SDS011;14235;48.532;8.722;2023-03-31T02:33:16;3.70;;;2.40;;
26588;SDS011;14235;48.532;8.722;2023-03-31T02:35:41;3.15;;;2.40;;
26588;SDS011;14235;48.532;8.722;2023-03-31T02:38:07;3.45;;;2.40;;
26588;SDS011;14235;48.532;8.722;2023-03-31T02:40:33;3.30;;;2.10;;
26588;SDS011;14235;48.532;8.722;2023-03-31T02:42:59;4.45;;;2.50;;
26588;SDS011;14235;48.532;8.722;2023-03-31T02:48:06;5.63;;;2.15;;
26588;SDS011;14235;48.532;8.722;2023-03-31T02:51:03;4.38;;;2.67;;
26588;SDS011;14235;48.532;8.722;2023-03-31T03:04:51;6.25;;;2.53;;
26588;SDS011;14235;48.532;8.722;2023-03-31T03:07:56;3.15;;;2.60;;
26588;SDS011;14235;48.532;8.722;2023-03-31T03:13:46;3.20;;;2.35;;
26588;SDS011;14235;48.532;8.722;2023-03-31T03:16:25;2.60;;;2.40;;
26588;SDS011;14235;48.532;8.722;2023-03-31T03:18:57;4.78;;;2.42;;
26588;SDS011;14235;48.532;8.722;2023-03-31T03:21:25;2.85;;;2.10;;
26588;SDS011;14235;48.532;8.722;2023-03-31T03:23:50;3.50;;;2.63;;
26588;SDS011;14235;48.532;8.722;2023-03-31T03:26:17;3.83;;;2.00;;
26588;SDS011;14235;48.532;8.722;2023-03-31T03:28:47;2.53;;;2.13;;
26588;SDS011;14235;48.532;8.722;2023-03-31T03:31:14;2.13;;;1.88;;
26588;SDS011;14235;48.532;8.722;2023-03-31T03:33:40;2.83;;;2.20;;
26588;SDS011;14235;48.532;8.722;2023-03-31T03:36:06;2.33;;;2.13;;
26588;SDS011;14235;48.532;8.722;2023-03-31T03:38:32;2.10;;;1.88;;
26588;SDS011;14235;48.532;8.722;2023-03-31T03:40:58;2.42;;;2.22;;
26588;SDS011;14235;48.532;8.722;2023-03-31T03:43:24;3.47;;;2.63;;
26588;SDS011;14235;48.532;8.722;2023-03-31T03:45:50;3.25;;;2.22;;
26588;SDS011;14235;48.532;8.722;2023-03-31T03:48:16;4.18;;;2.35;;
26588;SDS011;14235;48.532;8.722;2023-03-31T03:50:43;4.53;;;2.63;;
26588;SDS011;14235;48.532;8.722;2023-03-31T03:53:10;3.67;;;2.60;;
26588;SDS011;14235;48.532;8.722;2023-03-31T03:55:36;4.22;;;2.88;;
26588;SDS011;14235;48.532;8.722;2023-03-31T03:58:02;5.15;;;2.67;;
26588;SDS011;14235;48.532;8.722;2023-03-31T04:00:28;3.30;;;2.10;;
26588;SDS011;14235;48.532;8.722;2023-03-31T04:02:54;2.92;;;2.30;;
26588;SDS011;14235;48.532;8.722;2023-03-31T04:05:22;6.82;;;2.75;;
26588;SDS011;14235;48.532;8.722;2023-03-31T04:07:47;4.15;;;2.20;;
26588;SDS011;14235;48.532;8.722;2023-03-31T04:10:13;4.32;;;2.50;;
26588;SDS011;14235;48.532;8.722;2023-03-31T04:12:39;4.43;;;2.40;;
26588;SDS011;14235;48.532;8.722;2023-03-31T04:15:05;2.67;;;2.47;;
26588;SDS011;14235;48.532;8.722;2023-03-31T04:17:31;2.55;;;2.35;;
26588;SDS011;14235;48.532;8.722;2023-03-31T04:20:00;3.40;;;2.65;;
26588;SDS011;14235;48.532;8.722;2023-03-31T04:22:29;3.78;;;2.20;;
26588;SDS011;14235;48.532;8.722;2023-03-31T04:25:02;3.10;;;2.80;;
26588;SDS011;14235;48.532;8.722;2023-03-31T04:27:29;3.50;;;3.00;;
26588;SDS011;14235;48.532;8.722;2023-03-31T04:29:56;3.53;;;2.10;;
26588;SDS011;14235;48.532;8.722;2023-03-31T04:32:25;2.45;;;2.20;;
26588;SDS011;14235;48.532;8.722;2023-03-31T04:34:50;2.85;;;2.33;;
26588;SDS011;14235;48.532;8.722;2023-03-31T04:37:26;2.55;;;2.35;;
26588;SDS011;14235;48.532;8.722;2023-03-31T04:39:58;2.97;;;2.47;;
26588;SDS011;14235;48.532;8.722;2023-03-31T04:42:28;3.80;;;2.80;;
26588;SDS011;14235;48.532;8.722;2023-03-31T04:44:53;4.63;;;2.88;;
26588;SDS011;14235;48.532;8.722;2023-03-31T04:47:19;3.03;;;2.67;;
26588;SDS011;14235;48.532;8.722;2023-03-31T04:49:45;3.03;;;2.58;;
26588;SDS011;14235;48.532;8.722;2023-03-31T04:52:10;3.05;;;2.65;;
26588;SDS011;14235;48.532;8.722;2023-03-31T04:54:36;4.75;;;2.50;;
26588;SDS011;14235;48.532;8.722;2023-03-31T04:57:02;4.60;;;2.58;;
26588;SDS011;14235;48.532;8.722;2023-03-31T04:59:27;3.60;;;2.63;;
26588;SDS011;14235;48.532;8.722;2023-03-31T05:01:53;5.00;;;3.33;;
26588;SDS011;14235;48.532;8.722;2023-03-31T05:04:19;4.20;;;2.63;;
26588;SDS011;14235;48.532;8.722;2023-03-31T05:06:45;4.05;;;2.75;;
26588;SDS011;14235;48.532;8.722;2023-03-31T05:09:11;4.95;;;2.97;;
26588;SDS011;14235;48.532;8.722;2023-03-31T05:11:37;3.45;;;3.15;;
26588;SDS011;14235;48.532;8.722;2023-03-31T05:14:03;5.82;;;3.40;;
26588;SDS011;14235;48.532;8.722;2023-03-31T05:16:28;6.68;;;3.25;;
26588;SDS011;14235;48.532;8.722;2023-03-31T05:18:54;4.78;;;3.45;;
26588;SDS011;14235;48.532;8.722;2023-03-31T05:21:20;5.15;;;3.47;;
26588;SDS011;14235;48.532;8.722;2023-03-31T05:23:46;3.33;;;2.90;;
26588;SDS011;14235;48.532;8.722;2023-03-31T05:26:13;5.75;;;3.03;;
26588;SDS011;14235;48.532;8.722;2023-03-31T05:28:39;5.22;;;2.90;;
26588;SDS011;14235;48.532;8.722;2023-03-31T05:31:06;5.10;;;3.30;;
26588;SDS011;14235;48.532;8.722;2023-03-31T05:33:32;3.17;;;2.83;;
26588;SDS011;14235;48.532;8.722;2023-03-31T05:35:58;3.50;;;3.10;;
26588;SDS011;14235;48.532;8.722;2023-03-31T05:38:25;4.90;;;3.50;;
26588;SDS011;14235;48.532;8.722;2023-03-31T05:40:53;4.45;;;2.80;;
26588;SDS011;14235;48.532;8.722;2023-03-31T05:43:19;3.15;;;2.85;;
26588;SDS011;14235;48.532;8.722;2023-03-31T05:45:45;4.13;;;3.47;;
26588;SDS011;14235;48.532;8.722;2023-03-31T05:48:11;4.63;;;3.33;;
26588;SDS011;14235;48.532;8.722;2023-03-31T05:50:37;3.97;;;3.00;;
26588;SDS011;14235;48.532;8.722;2023-03-31T05:53:02;4.03;;;2.90;;
26588;SDS011;14235;48.532;8.722;2023-03-31T05:55:28;4.10;;;3.50;;
26588;SDS011;14235;48.532;8.722;2023-03-31T05:57:54;4.63;;;3.80;;
26588;SDS011;14235;48.532;8.722;2023-03-31T06:00:20;3.85;;;3.53;;
26588;SDS011;14235;48.532;8.722;2023-03-31T06:02:46;5.85;;;3.95;;
26588;SDS011;14235;48.532;8.722;2023-03-31T06:05:12;4.75;;;3.83;;
26588;SDS011;14235;48.532;8.722;2023-03-31T06:07:38;5.15;;;4.10;;
26588;SDS011;14235;48.532;8.722;2023-03-31T06:10:04;4.47;;;3.85;;
26588;SDS011;14235;48.532;8.722;2023-03-31T06:12:32;4.15;;;3.53;;
26588;SDS011;14235;48.532;8.722;2023-03-31T06:14:57;5.00;;;3.90;;
26588;SDS011;14235;48.532;8.722;2023-03-31T06:17:23;4.03;;;3.47;;
26588;SDS011;14235;48.532;8.722;2023-03-31T06:19:49;5.05;;;3.53;;
26588;SDS011;14235;48.532;8.722;2023-03-31T06:22:15;4.05;;;3.60;;
26588;SDS011;14235;48.532;8.722;2023-03-31T06:24:41;3.95;;;3.45;;
26588;SDS011;14235;48.532;8.722;2023-03-31T06:27:06;4.30;;;3.90;;
26588;SDS011;14235;48.532;8.722;2023-03-31T06:29:32;8.07;;;3.78;;
26588;SDS011;14235;48.532;8.722;2023-03-31T06:31:58;3.97;;;3.40;;
26588;SDS011;14235;48.532;8.722;2023-03-31T06:34:23;4.35;;;3.50;;
26588;SDS011;14235;48.532;8.722;2023-03-31T06:36:49;5.40;;;4.18;;
26588;SDS011;14235;48.532;8.722;2023-03-31T06:39:15;8.15;;;4.40;;
26588;SDS011;14235;48.532;8.722;2023-03-31T06:42:02;5.97;;;4.35;;
26588;SDS011;14235;48.532;8.722;2023-03-31T06:44:32;6.00;;;3.92;;
26588;SDS011;14235;48.532;8.722;2023-03-31T06:46:59;4.72;;;3.95;;
26588;SDS011;14235;48.532;8.722;2023-03-31T06:49:29;5.47;;;3.10;;
26588;SDS011;14235;48.532;8.722;2023-03-31T06:51:55;2.95;;;2.50;;
26588;SDS011;14235;48.532;8.722;2023-03-31T06:54:21;4.18;;;1.90;;
26588;SDS011;14235;48.532;8.722;2023-03-31T06:56:49;2.13;;;1.92;;
26588;SDS011;14235;48.532;8.722;2023-03-31T06:59:16;2.10;;;1.63;;
26588;SDS011;14235;48.532;8.722;2023-03-31T07:01:42;1.38;;;1.30;;
26588;SDS011;14235;48.532;8.722;2023-03-31T07:04:09;1.10;;;1.10;;
26588;SDS011;14235;48.532;8.722;2023-03-31T07:06:35;2.25;;;1.33;;
26588;SDS011;14235;48.532;8.722;2023-03-31T07:09:03;1.02;;;0.90;;
26588;SDS011;14235;48.532;8.722;2023-03-31T07:11:29;0.90;;;0.90;;
26588;SDS011;14235;48.532;8.722;2023-03-31T07:13:55;0.65;;;0.65;;
26588;SDS011;14235;48.532;8.722;2023-03-31T07:16:25;1.48;;;0.85;;
26588;SDS011;14235;48.532;8.722;2023-03-31T07:18:52;0.70;;;0.70;;
26588;SDS011;14235;48.532;8.722;2023-03-31T07:21:24;1.25;;;0.73;;
26588;SDS011;14235;48.532;8.722;2023-03-31T07:23:50;2.13;;;1.70;;
26588;SDS011;14235;48.532;8.722;2023-03-31T07:26:16;1.73;;;1.60;;
26588;SDS011;14235;48.532;8.722;2023-03-31T07:28:42;0.95;;;0.95;;
26588;SDS011;14235;48.532;8.722;2023-03-31T07:31:12;1.42;;;1.33;;
26588;SDS011;14235;48.532;8.722;2023-03-31T07:33:39;1.30;;;1.20;;
26588;SDS011;14235;48.532;8.722;2023-03-31T07:36:06;1.48;;;1.33;;
26588;SDS011;14235;48.532;8.722;2023-03-31T07:38:33;3.63;;;3.33;;
26588;SDS011;14235;48.532;8.722;2023-03-31T07:40:59;3.33;;;3.03;;
26588;SDS011;14235;48.532;8.722;2023-03-31T07:43:25;3.50;;;1.90;;
26588;SDS011;14235;48.532;8.722;2023-03-31T07:45:51;1.30;;;1.30;;
26588;SDS011;14235;48.532;8.722;2023-03-31T07:48:17;1.23;;;1.13;;
26588;SDS011;14235;48.532;8.722;2023-03-31T07:50:43;1.33;;;1.15;;
26588;SDS011;14235;48.532;8.722;2023-03-31T07:53:09;1.08;;;1.05;;
26588;SDS011;14235;48.532;8.722;2023-03-31T07:55:35;1.48;;;1.38;;
26588;SDS011;14235;48.532;8.722;2023-03-31T07:58:01;1.20;;;1.17;;
26588;SDS011;14235;48.532;8.722;2023-03-31T08:00:27;2.25;;;1.10;;
26588;SDS011;14235;48.532;8.722;2023-03-31T08:02:54;1.02;;;1.00;;
26588;SDS011;14235;48.532;8.722;2023-03-31T08:05:20;2.20;;;1.25;;
26588;SDS011;14235;48.532;8.722;2023-03-31T08:07:47;1.70;;;1.10;;
26588;SDS011;14235;48.532;8.722;2023-03-31T08:10:16;1.67;;;1.17;;
26588;SDS011;14235;48.532;8.722;2023-03-31T08:12:50;1.88;;;1.40;;
26588;SDS011;14235;48.532;8.722;2023-03-31T08:15:17;3.05;;;1.35;;
26588;SDS011;14235;48.532;8.722;2023-03-31T08:17:43;3.08;;;1.45;;
26588;SDS011;14235;48.532;8.722;2023-03-31T08:20:13;2.63;;;1.50;;
26588;SDS011;14235;48.532;8.722;2023-03-31T08:22:39;3.17;;;1.38;;
26588;SDS011;14235;48.532;8.722;2023-03-31T08:25:08;1.67;;;1.02;;
26588;SDS011;14235;48.532;8.722;2023-03-31T08:27:35;2.28;;;1.08;;
26588;SDS011;14235;48.532;8.722;2023-03-31T08:30:04;1.13;;;1.00;;
26588;SDS011;14235;48.532;8.722;2023-03-31T08:32:32;1.13;;;0.95;;
26588;SDS011;14235;48.532;8.722;2023-03-31T08:35:00;1.23;;;1.10;;
26588;SDS011;14235;48.532;8.722;2023-03-31T08:37:27;1.30;;;1.20;;
26588;SDS011;14235;48.532;8.722;2023-03-31T08:39:54;3.10;;;1.17;;
26588;SDS011;14235;48.532;8.722;2023-03-31T08:42:24;1.60;;;1.10;;
26588;SDS011;14235;48.532;8.722;2023-03-31T08:45:05;1.30;;;1.02;;
26588;SDS011;14235;48.532;8.722;2023-03-31T08:50:55;1.70;;;1.00;;
26588;SDS011;14235;48.532;8.722;2023-03-31T08:54:12;1.17;;;0.90;;
26588;SDS011;14235;48.532;8.722;2023-03-31T08:56:28;2.67;;;1.00;;
26588;SDS011;14235;48.532;8.722;2023-03-31T08:59:03;1.25;;;1.00;;
26588;SDS011;14235;48.532;8.722;2023-03-31T09:07:54;2.25;;;1.00;;
26588;SDS011;14235;48.532;8.722;2023-03-31T09:10:50;1.75;;;1.17;;
26588;SDS011;14235;48.532;8.722;2023-03-31T09:19:35;1.45;;;1.00;;
26588;SDS011;14235;48.532;8.722;2023-03-31T09:22:30;2.63;;;1.10;;
26588;SDS011;14235;48.532;8.722;2023-03-31T09:27:43;5.18;;;1.30;;
26588;SDS011;14235;48.532;8.722;2023-03-31T09:30:21;3.47;;;1.60;;
26588;SDS011;14235;48.532;8.722;2023-03-31T09:32:57;3.45;;;1.60;;
26588;SDS011;14235;48.532;8.722;2023-03-31T09:35:35;2.90;;;1.58;;
26588;SDS011;14235;48.532;8.722;2023-03-31T09:38:02;3.05;;;1.40;;
26588;SDS011;14235;48.532;8.722;2023-03-31T09:40:28;2.92;;;1.40;;
26588;SDS011;14235;48.532;8.722;2023-03-31T09:45:56;4.03;;;1.70;;
26588;SDS011;14235;48.532;8.722;2023-03-31T09:48:24;2.50;;;1.40;;
26588;SDS011;14235;48.532;8.722;2023-03-31T09:50:59;3.40;;;1.48;;
26588;SDS011;14235;48.532;8.722;2023-03-31T09:53:38;4.32;;;1.60;;
26588;SDS011;14235;48.532;8.722;2023-03-31T09:56:32;5.47;;;1.70;;
26588;SDS011;14235;48.532;8.722;2023-03-31T09:59:15;8.25;;;2.03;;
26588;SDS011;14235;48.532;8.722;2023-03-31T10:01:50;4.78;;;1.70;;
26588;SDS011;14235;48.532;8.722;2023-03-31T10:04:23;2.45;;;1.70;;
26588;SDS011;14235;48.532;8.722;2023-03-31T10:06:54;4.43;;;1.65;;
26588;SDS011;14235;48.532;8.722;2023-03-31T10:09:23;3.97;;;1.85;;
26588;SDS011;14235;48.532;8.722;2023-03-31T10:12:18;2.85;;;1.25;;
26588;SDS011;14235;48.532;8.722;2023-03-31T10:14:49;4.80;;;1.60;;
26588;SDS011;14235;48.532;8.722;2023-03-31T10:17:21;6.07;;;1.70;;
26588;SDS011;14235;48.532;8.722;2023-03-31T10:19:53;4.95;;;2.03;;
26588;SDS011;14235;48.532;8.722;2023-03-31T10:22:31;4.30;;;1.65;;
26588;SDS011;14235;48.532;8.722;2023-03-31T10:25:18;4.35;;;1.90;;
26588;SDS011;14235;48.532;8.722;2023-03-31T10:27:53;3.97;;;1.75;;
26588;SDS011;14235;48.532;8.722;2023-03-31T10:30:25;9.07;;;1.85;;
26588;SDS011;14235;48.532;8.722;2023-03-31T10:32:54;5.28;;;2.00;;
26588;SDS011;14235;48.532;8.722;2023-03-31T10:35:31;5.03;;;1.67;;
26588;SDS011;14235;48.532;8.722;2023-03-31T10:38:03;6.55;;;1.85;;
26588;SDS011;14235;48.532;8.722;2023-03-31T10:40:36;5.45;;;1.77;;
26588;SDS011;14235;48.532;8.722;2023-03-31T10:43:14;5.78;;;1.77;;
26588;SDS011;14235;48.532;8.722;2023-03-31T10:48:31;3.03;;;1.70;;
26588;SDS011;14235;48.532;8.722;2023-03-31T10:51:01;2.63;;;1.45;;
26588;SDS011;14235;48.532;8.722;2023-03-31T10:53:38;5.18;;;1.80;;
26588;SDS011;14235;48.532;8.722;2023-03-31T10:56:09;3.20;;;1.40;;
26588;SDS011;14235;48.532;8.722;2023-03-31T11:18:32;1.58;;;0.98;;
26588;SDS011;14235;48.532;8.722;2023-03-31T11:24:16;0.73;;;0.52;;
26588;SDS011;14235;48.532;8.722;2023-03-31T11:29:47;0.57;;;0.40;;
26588;SDS011;14235;48.532;8.722;2023-03-31T11:32:25;0.57;;;0.40;;
26588;SDS011;14235;48.532;8.722;2023-03-31T11:35:00;1.05;;;0.50;;
26588;SDS011;14235;48.532;8.722;2023-03-31T11:37:58;0.38;;;0.20;;
26588;SDS011;14235;48.532;8.722;2023-03-31T11:40:58;0.75;;;0.50;;
26588;SDS011;14235;48.532;8.722;2023-03-31T11:44:03;0.52;;;0.20;;
26588;SDS011;14235;48.532;8.722;2023-03-31T11:46:45;0.73;;;0.40;;
26588;SDS011;14235;48.532;8.722;2023-03-31T11:49:31;0.40;;;0.20;;
26588;SDS011;14235;48.532;8.722;2023-03-31T11:52:34;0.73;;;0.40;;
26588;SDS011;14235;48.532;8.722;2023-03-31T11:55:16;0.50;;;0.40;;
26588;SDS011;14235;48.532;8.722;2023-03-31T11:58:01;0.30;;;0.30;;
26588;SDS011;14235;48.532;8.722;2023-03-31T12:00:45;1.30;;;0.50;;
26588;SDS011;14235;48.532;8.722;2023-03-31T12:03:18;0.60;;;0.40;;
26588;SDS011;14235;48.532;8.722;2023-03-31T12:06:23;1.33;;;0.55;;
26588;SDS011;14235;48.532;8.722;2023-03-31T12:12:01;1.17;;;0.50;;
26588;SDS011;14235;48.532;8.722;2023-03-31T12:15:05;0.63;;;0.40;;
26588;SDS011;14235;48.532;8.722;2023-03-31T12:18:08;0.80;;;0.50;;
26588;SDS011;14235;48.532;8.722;2023-03-31T12:20:51;1.83;;;0.55;;
26588;SDS011;14235;48.532;8.722;2023-03-31T12:23:21;1.95;;;0.63;;
26588;SDS011;14235;48.532;8.722;2023-03-31T12:25:53;1.38;;;0.57;;
26588;SDS011;14235;48.532;8.722;2023-03-31T12:28:26;2.38;;;0.70;;
26588;SDS011;14235;48.532;8.722;2023-03-31T12:30:54;0.88;;;0.55;;
26588;SDS011;14235;48.532;8.722;2023-03-31T12:33:25;1.55;;;0.70;;
26588;SDS011;14235;48.532;8.722;2023-03-31T12:38:32;2.42;;;0.65;;
26588;SDS011;14235;48.532;8.722;2023-03-31T12:41:21;2.30;;;0.70;;
26588;SDS011;14235;48.532;8.722;2023-03-31T12:44:39;1.33;;;0.77;;
26588;SDS011;14235;48.532;8.722;2023-03-31T12:55:30;2.25;;;1.05;;
26588;SDS011;14235;48.532;8.722;2023-03-31T13:09:04;3.42;;;1.30;;
26588;SDS011;14235;48.532;8.722;2023-03-31T13:14:00;3.05;;;1.33;;
26588;SDS011;14235;48.532;8.722;2023-03-31T13:16:32;3.22;;;1.45;;
26588;SDS011;14235;48.532;8.722;2023-03-31T13:18:58;3.35;;;1.52;;
26588;SDS011;14235;48.532;8.722;2023-03-31T13:21:25;4.25;;;1.58;;
26588;SDS011;14235;48.532;8.722;2023-03-31T13:23:51;4.57;;;2.05;;
26588;SDS011;14235;48.532;8.722;2023-03-31T13:26:39;1.70;;;1.30;;
26588;SDS011;14235;48.532;8.722;2023-03-31T13:34:25;1.35;;;0.60;;
26588;SDS011;14235;48.532;8.722;2023-03-31T13:39:48;2.47;;;0.52;;
26588;SDS011;14235;48.532;8.722;2023-03-31T13:50:35;1.23;;;0.90;;
26588;SDS011;14235;48.532;8.722;2023-03-31T13:58:46;0.30;;;0.13;;
26588;SDS011;14235;48.532;8.722;2023-03-31T14:07:25;0.20;;;0.20;;
26588;SDS011;14235;48.532;8.722;2023-03-31T14:09:56;0.77;;;0.30;;
26588;SDS011;14235;48.532;8.722;2023-03-31T14:15:01;0.60;;;0.60;;
26588;SDS011;14235;48.532;8.722;2023-03-31T14:17:29;0.75;;;0.45;;
26588;SDS011;14235;48.532;8.722;2023-03-31T14:22:56;1.23;;;0.65;;
26588;SDS011;14235;48.532;8.722;2023-03-31T14:25:46;0.77;;;0.50;;
26588;SDS011;14235;48.532;8.722;2023-03-31T14:37:03;2.97;;;0.82;;
26588;SDS011;14235;48.532;8.722;2023-03-31T14:39:41;0.55;;;0.47;;
26588;SDS011;14235;48.532;8.722;2023-03-31T14:42:14;0.65;;;0.50;;
26588;SDS011;14235;48.532;8.722;2023-03-31T14:44:41;3.25;;;0.57;;
26588;SDS011;14235;48.532;8.722;2023-03-31T14:47:18;3.05;;;0.70;;
26588;SDS011;14235;48.532;8.722;2023-03-31T14:49:46;0.50;;;0.50;;
26588;SDS011;14235;48.532;8.722;2023-03-31T14:52:19;0.70;;;0.47;;
26588;SDS011;14235;48.532;8.722;2023-03-31T14:54:47;0.65;;;0.60;;
26588;SDS011;14235;48.532;8.722;2023-03-31T14:57:16;0.50;;;0.50;;
26588;SDS011;14235;48.532;8.722;2023-03-31T14:59:44;1.42;;;1.13;;
26588;SDS011;14235;48.532;8.722;2023-03-31T15:02:17;1.70;;;0.73;;
26588;SDS011;14235;48.532;8.722;2023-03-31T15:04:47;2.38;;;0.65;;
26588;SDS011;14235;48.532;8.722;2023-03-31T15:07:15;1.30;;;0.80;;
26588;SDS011;14235;48.532;8.722;2023-03-31T15:09:42;1.65;;;0.60;;
26588;SDS011;14235;48.532;8.722;2023-03-31T15:12:14;1.30;;;0.90;;
26588;SDS011;14235;48.532;8.722;2023-03-31T15:14:45;1.35;;;0.73;;
26588;SDS011;14235;48.532;8.722;2023-03-31T15:17:20;1.77;;;1.00;;
26588;SDS011;14235;48.532;8.722;2023-03-31T15:19:52;2.28;;;0.80;;
26588;SDS011;14235;48.532;8.722;2023-03-31T15:22:23;2.70;;;1.00;;
26588;SDS011;14235;48.532;8.722;2023-03-31T15:24:51;1.58;;;0.73;;
26588;SDS011;14235;48.532;8.722;2023-03-31T15:27:19;1.55;;;1.08;;
26588;SDS011;14235;48.532;8.722;2023-03-31T15:29:50;1.88;;;0.98;;
26588;SDS011;14235;48.532;8.722;2023-03-31T15:32:29;1.52;;;0.90;;
26588;SDS011;14235;48.532;8.722;2023-03-31T15:34:56;2.20;;;1.02;;
26588;SDS011;14235;48.532;8.722;2023-03-31T15:37:24;2.20;;;1.10;;
26588;SDS011;14235;48.532;8.722;2023-03-31T15:39:56;1.42;;;0.63;;
26588;SDS011;14235;48.532;8.722;2023-03-31T15:42:23;2.63;;;0.98;;
26588;SDS011;14235;48.532;8.722;2023-03-31T15:47:38;2.03;;;1.05;;
26588;SDS011;14235;48.532;8.722;2023-03-31T15:50:13;2.55;;;1.23;;
26588;SDS011;14235;48.532;8.722;2023-03-31T15:52:49;2.90;;;1.05;;
26588;SDS011;14235;48.532;8.722;2023-03-31T15:55:27;2.42;;;1.17;;
26588;SDS011;14235;48.532;8.722;2023-03-31T15:58:03;3.17;;;1.05;;
26588;SDS011;14235;48.532;8.722;2023-03-31T16:03:02;1.38;;;0.90;;
26588;SDS011;14235;48.532;8.722;2023-03-31T16:08:51;1.35;;;0.80;;
26588;SDS011;14235;48.532;8.722;2023-03-31T16:11:32;2.72;;;1.42;;
26588;SDS011;14235;48.532;8.722;2023-03-31T16:14:05;1.52;;;1.40;;
26588;SDS011;14235;48.532;8.722;2023-03-31T16:16:36;3.38;;;1.02;;
26588;SDS011;14235;48.532;8.722;2023-03-31T16:19:03;3.00;;;1.40;;
26588;SDS011;14235;48.532;8.722;2023-03-31T16:21:35;2.78;;;1.17;;
26588;SDS011;14235;48.532;8.722;2023-03-31T16:24:04;2.10;;;1.40;;
26588;SDS011;14235;48.532;8.722;2023-03-31T16:26:30;3.00;;;1.00;;
26588;SDS011;14235;48.532;8.722;2023-03-31T16:28:56;1.55;;;1.08;;
26588;SDS011;14235;48.532;8.722;2023-03-31T16:31:28;1.05;;;0.63;;
26588;SDS011;14235;48.532;8.722;2023-03-31T16:33:58;1.83;;;0.68;;
26588;SDS011;14235;48.532;8.722;2023-03-31T16:36:24;0.70;;;0.70;;
26588;SDS011;14235;48.532;8.722;2023-03-31T16:38:53;2.00;;;0.70;;
26588;SDS011;14235;48.532;8.722;2023-03-31T16:41:19;2.33;;;2.13;;
26588;SDS011;14235;48.532;8.722;2023-03-31T16:43:48;1.60;;;1.50;;
26588;SDS011;14235;48.532;8.722;2023-03-31T16:46:16;1.38;;;1.00;;
26588;SDS011;14235;48.532;8.722;2023-03-31T16:48:42;1.00;;;0.80;;
26588;SDS011;14235;48.532;8.722;2023-03-31T16:51:08;1.10;;;0.75;;
26588;SDS011;14235;48.532;8.722;2023-03-31T16:53:33;1.17;;;1.15;;
26588;SDS011;14235;48.532;8.722;2023-03-31T16:56:01;0.90;;;0.90;;
26588;SDS011;14235;48.532;8.722;2023-03-31T16:58:28;2.25;;;0.60;;
26588;SDS011;14235;48.532;8.722;2023-03-31T17:00:54;0.70;;;0.70;;
26588;SDS011;14235;48.532;8.722;2023-03-31T17:03:21;1.27;;;1.17;;
26588;SDS011;14235;48.532;8.722;2023-03-31T17:05:48;2.20;;;0.93;;
26588;SDS011;14235;48.532;8.722;2023-03-31T17:08:19;1.33;;;1.20;;
26588;SDS011;14235;48.532;8.722;2023-03-31T17:10:53;0.88;;;0.88;;
26588;SDS011;14235;48.532;8.722;2023-03-31T17:13:26;1.20;;;1.10;;
26588;SDS011;14235;48.532;8.722;2023-03-31T17:15:52;0.43;;;0.43;;
26588;SDS011;14235;48.532;8.722;2023-03-31T17:18:18;2.00;;;1.10;;
26588;SDS011;14235;48.532;8.722;2023-03-31T17:20:44;1.30;;;0.80;;
26588;SDS011;14235;48.532;8.722;2023-03-31T17:23:10;2.00;;;1.00;;
26588;SDS011;14235;48.532;8.722;2023-03-31T17:25:35;1.70;;;1.20;;
26588;SDS011;14235;48.532;8.722;2023-03-31T17:28:04;3.30;;;1.40;;
26588;SDS011;14235;48.532;8.722;2023-03-31T17:30:30;2.03;;;1.35;;
26588;SDS011;14235;48.532;8.722;2023-03-31T17:32:56;3.70;;;1.40;;
26588;SDS011;14235;48.532;8.722;2023-03-31T17:35:22;3.97;;;1.10;;
26588;SDS011;14235;48.532;8.722;2023-03-31T17:37:48;3.42;;;1.15;;
26588;SDS011;14235;48.532;8.722;2023-03-31T17:40:17;1.10;;;0.98;;
26588;SDS011;14235;48.532;8.722;2023-03-31T17:42:46;1.15;;;0.85;;
26588;SDS011;14235;48.532;8.722;2023-03-31T17:45:12;2.53;;;0.90;;
26588;SDS011;14235;48.532;8.722;2023-03-31T17:47:38;1.55;;;1.27;;
26588;SDS011;14235;48.532;8.722;2023-03-31T17:50:04;1.25;;;1.00;;
26588;SDS011;14235;48.532;8.722;2023-03-31T17:52:30;1.23;;;1.13;;
26588;SDS011;14235;48.532;8.722;2023-03-31T17:54:57;1.27;;;1.10;;
26588;SDS011;14235;48.532;8.722;2023-03-31T17:57:23;2.47;;;1.10;;
26588;SDS011;14235;48.532;8.722;2023-03-31T17:59:49;2.20;;;1.00;;
26588;SDS011;14235;48.532;8.722;2023-03-31T18:02:15;3.35;;;1.38;;
26588;SDS011;14235;48.532;8.722;2023-03-31T18:04:41;2.42;;;1.23;;
26588;SDS011;14235;48.532;8.722;2023-03-31T18:07:07;1.33;;;1.00;;
26588;SDS011;14235;48.532;8.722;2023-03-31T18:09:32;2.75;;;1.10;;
26588;SDS011;14235;48.532;8.722;2023-03-31T18:11:58;3.88;;;1.27;;